Time;durP1;ratioP1;P1;durP2;ratioP2;P2;SDS_P1;SDS_P2;PMS_P1;PMS_P2;Temp;Humidity;BMP_temperature;BMP_pressure;BME280_temperature;BME280_humidity;BME280_pressure;Samples;Min_cycle;Max_cycle;Signal;HPM_P1;HPM_P2
2021/11/30 00:01:27;;;;;;;10.13;4.57;;;4.00;99.90;;;;;;5124882;28;20050;-75
2021/11/30 00:03:54;;;;;;;7.65;3.75;;;4.00;99.90;;;;;;5125205;28;20032;-74
2021/11/30 00:06:19;;;;;;;9.38;3.22;;;4.00;99.90;;;;;;5125431;28;20053;-74
2021/11/30 00:08:48;;;;;;;9.40;3.35;;;4.00;99.90;;;;;;5106399;28;20024;-73
2021/11/30 00:11:13;;;;;;;8.85;3.30;;;4.00;99.90;;;;;;5124333;28;20107;-73
2021/11/30 00:13:41;;;;;;;10.40;3.75;;;4.00;99.90;;;;;;5106258;28;20053;-74
2021/11/30 00:16:08;;;;;;;9.85;4.03;;;4.00;99.90;;;;;;5124842;28;20040;-73
2021/11/30 00:18:34;;;;;;;9.80;4.03;;;4.00;99.90;;;;;;5106070;28;20032;-74
2021/11/30 00:21:07;;;;;;;9.20;3.67;;;4.00;99.90;;;;;;5106750;28;20038;-75
2021/11/30 00:23:33;;;;;;;7.70;3.33;;;4.00;99.90;;;;;;5124859;28;20020;-72
2021/11/30 00:26:03;;;;;;;9.27;4.25;;;4.00;99.90;;;;;;5106415;28;20024;-75
2021/11/30 00:28:29;;;;;;;8.38;3.75;;;4.00;99.90;;;;;;5106022;28;20046;-75
2021/11/30 00:30:55;;;;;;;12.25;4.15;;;3.90;99.90;;;;;;5127371;28;20476;-75
2021/11/30 00:33:22;;;;;;;9.25;3.83;;;4.00;99.90;;;;;;5128887;28;20032;-73
2021/11/30 00:35:48;;;;;;;15.95;4.22;;;4.00;99.90;;;;;;5128418;28;20070;-73
2021/11/30 00:38:14;;;;;;;8.93;4.75;;;4.00;99.90;;;;;;5128791;28;20019;-72
2021/11/30 00:40:42;;;;;;;8.88;3.50;;;4.00;99.90;;;;;;5128759;28;20236;-74
2021/11/30 00:43:09;;;;;;;10.60;4.88;;;4.00;99.90;;;;;;5128359;28;20112;-73
2021/11/30 00:45:47;;;;;;;12.27;4.97;;;4.00;99.90;;;;;;5110259;28;20051;-73
2021/11/30 00:48:19;;;;;;;10.32;4.68;;;4.10;99.90;;;;;;5109626;28;20032;-75
2021/11/30 00:50:45;;;;;;;10.02;4.68;;;4.00;99.90;;;;;;5128164;28;20031;-72
2021/11/30 00:53:11;;;;;;;11.07;4.97;;;4.00;99.90;;;;;;5127649;28;20024;-72
2021/11/30 00:55:37;;;;;;;10.63;4.80;;;3.90;99.90;;;;;;5109649;28;20038;-71
2021/11/30 00:58:03;;;;;;;12.02;4.20;;;4.00;99.90;;;;;;5128276;28;20050;-71
2021/11/30 01:00:30;;;;;;;8.60;3.80;;;4.00;99.90;;;;;;5109579;28;20045;-74
2021/11/30 01:02:56;;;;;;;9.30;4.43;;;4.00;99.90;;;;;;5128228;28;20047;-71
2021/11/30 01:05:22;;;;;;;6.05;2.70;;;3.90;99.90;;;;;;5127666;28;20035;-72
2021/11/30 01:07:47;;;;;;;7.32;3.70;;;3.90;99.90;;;;;;5128321;28;20034;-70
2021/11/30 01:10:15;;;;;;;6.68;3.50;;;3.90;99.90;;;;;;5109714;28;20023;-73
2021/11/30 01:12:43;;;;;;;10.27;4.05;;;3.90;99.90;;;;;;5127825;28;20100;-73
2021/11/30 01:15:14;;;;;;;9.00;3.38;;;3.90;99.90;;;;;;5109473;28;20032;-70
2021/11/30 01:17:40;;;;;;;7.80;4.43;;;3.90;99.90;;;;;;5128041;28;20106;-71
2021/11/30 01:20:07;;;;;;;11.00;3.55;;;3.90;99.90;;;;;;5109349;28;20028;-72
2021/11/30 01:22:33;;;;;;;6.03;2.85;;;3.90;99.90;;;;;;5127793;28;20087;-73
2021/11/30 01:24:59;;;;;;;6.20;3.05;;;3.90;99.90;;;;;;5109393;28;20057;-71
2021/11/30 01:27:26;;;;;;;9.65;3.78;;;3.90;99.90;;;;;;5127726;28;20020;-71
2021/11/30 01:29:52;;;;;;;10.20;4.20;;;3.90;99.90;;;;;;5127695;28;20100;-73
2021/11/30 01:32:18;;;;;;;6.03;3.38;;;3.90;99.90;;;;;;5127073;28;20700;-70
2021/11/30 01:34:44;;;;;;;8.40;3.00;;;3.90;99.90;;;;;;5127535;28;20032;-69
2021/11/30 01:37:14;;;;;;;7.22;3.75;;;3.90;99.90;;;;;;5127410;28;20023;-72
2021/11/30 01:39:42;;;;;;;8.40;3.75;;;3.90;99.90;;;;;;5127528;28;20045;-74
2021/11/30 01:42:08;;;;;;;12.02;4.03;;;3.90;99.90;;;;;;5126862;28;20027;-73
2021/11/30 01:44:49;;;;;;;7.25;3.53;;;3.90;99.90;;;;;;5108690;28;20393;-71
2021/11/30 01:47:35;;;;;;;5.45;2.75;;;3.90;99.90;;;;;;5127326;28;20031;-72
2021/11/30 01:50:04;;;;;;;7.53;3.00;;;3.90;99.90;;;;;;5127448;28;20027;-72
2021/11/30 01:52:30;;;;;;;8.82;3.60;;;3.90;99.90;;;;;;5126893;28;20496;-74
2021/11/30 01:54:56;;;;;;;17.00;3.25;;;4.00;99.90;;;;;;5126620;28;20038;-72
2021/11/30 01:57:24;;;;;;;6.97;3.45;;;3.90;99.90;;;;;;5126884;28;20028;-73
2021/11/30 01:59:52;;;;;;;11.32;3.58;;;3.90;99.90;;;;;;5127016;28;20042;-72
2021/11/30 02:02:19;;;;;;;6.68;3.30;;;3.90;99.90;;;;;;5127200;28;20054;-73
2021/11/30 02:04:44;;;;;;;5.80;2.95;;;3.90;99.90;;;;;;5126878;28;20024;-72
2021/11/30 02:07:10;;;;;;;6.32;3.20;;;3.90;99.90;;;;;;5126870;28;20079;-71
2021/11/30 02:09:38;;;;;;;5.95;2.47;;;4.00;99.90;;;;;;5126352;28;20028;-72
2021/11/30 02:12:05;;;;;;;14.93;3.85;;;4.00;99.90;;;;;;5126586;28;20042;-72
2021/11/30 02:14:32;;;;;;;6.85;2.40;;;4.00;99.90;;;;;;5108221;28;20095;-74
2021/11/30 02:16:59;;;;;;;5.07;2.35;;;3.90;99.90;;;;;;5126147;28;20027;-74
2021/11/30 02:19:26;;;;;;;4.03;2.28;;;4.00;99.90;;;;;;5126905;28;20036;-77
2021/11/30 02:21:53;;;;;;;5.88;3.15;;;3.90;99.90;;;;;;5126493;28;20482;-74
2021/11/30 02:24:18;;;;;;;4.07;2.20;;;3.90;99.90;;;;;;5126505;28;20019;-76
2021/11/30 02:26:44;;;;;;;6.13;2.38;;;3.90;99.90;;;;;;5126266;28;20038;-72
2021/11/30 02:29:12;;;;;;;3.53;2.00;;;3.80;99.90;;;;;;5107966;28;20046;-75
2021/11/30 02:31:45;;;;;;;5.20;2.40;;;3.80;99.90;;;;;;5125948;28;20051;-73
2021/11/30 02:34:10;;;;;;;11.80;2.22;;;3.80;99.90;;;;;;5125958;28;20024;-72
2021/11/30 02:36:49;;;;;;;4.57;2.10;;;3.80;99.90;;;;;;5126208;28;20035;-72
2021/11/30 02:39:20;;;;;;;6.13;2.28;;;3.80;99.90;;;;;;5126080;28;20031;-73
2021/11/30 02:41:47;;;;;;;4.68;2.25;;;3.80;99.90;;;;;;5125988;28;20079;-72
2021/11/30 02:44:15;;;;;;;4.28;2.00;;;3.80;99.90;;;;;;5106938;28;20041;-73
2021/11/30 02:46:45;;;;;;;6.65;2.25;;;3.70;99.90;;;;;;5125809;28;20043;-71
2021/11/30 02:49:13;;;;;;;4.18;2.45;;;3.70;99.90;;;;;;5107295;28;20043;-73
2021/11/30 02:51:41;;;;;;;5.18;1.83;;;3.70;99.90;;;;;;5125454;28;20046;-72
2021/11/30 02:54:10;;;;;;;5.60;2.75;;;3.80;99.90;;;;;;5125678;28;20042;-70
2021/11/30 02:56:42;;;;;;;4.60;2.05;;;3.70;99.90;;;;;;5126154;28;20098;-73
2021/11/30 02:59:08;;;;;;;4.80;2.40;;;3.70;99.90;;;;;;5107121;28;20027;-72
2021/11/30 03:01:42;;;;;;;4.88;2.83;;;3.70;99.90;;;;;;5125018;28;20028;-74
2021/11/30 03:04:13;;;;;;;3.22;2.03;;;3.60;99.90;;;;;;5125794;28;20026;-72
2021/11/30 03:06:39;;;;;;;8.70;2.97;;;3.60;99.90;;;;;;5125466;28;20027;-71
2021/11/30 03:09:05;;;;;;;5.50;2.33;;;3.60;99.90;;;;;;5106486;28;20054;-72
2021/11/30 03:11:31;;;;;;;6.45;2.83;;;3.60;99.90;;;;;;5124864;27;20031;-72
2021/11/30 03:13:57;;;;;;;4.82;2.67;;;3.60;99.90;;;;;;5107106;28;20023;-73
2021/11/30 03:16:22;;;;;;;10.45;2.95;;;3.60;99.90;;;;;;5125828;28;20034;-74
2021/11/30 03:18:48;;;;;;;5.35;2.55;;;3.60;99.90;;;;;;5107151;28;20019;-74
2021/11/30 03:21:14;;;;;;;6.13;2.38;;;3.60;99.90;;;;;;5125047;28;20361;-73
2021/11/30 03:23:41;;;;;;;3.35;1.67;;;3.60;99.90;;;;;;5124933;28;20024;-73
2021/11/30 03:26:08;;;;;;;4.47;2.45;;;3.60;99.90;;;;;;5106998;28;20028;-71
2021/11/30 03:28:33;;;;;;;7.07;3.15;;;3.60;99.90;;;;;;5125319;28;20020;-70
2021/11/30 03:31:06;;;;;;;5.47;2.95;;;3.60;99.90;;;;;;5107057;28;20054;-74
2021/11/30 03:36:17;;;;;;;5.85;3.10;;;3.60;99.90;;;;;;5125800;28;20521;-72
2021/11/30 03:38:43;;;;;;;7.63;3.03;;;3.60;99.90;;;;;;5124353;28;20068;-71
2021/11/30 03:41:11;;;;;;;7.38;3.55;;;3.70;99.90;;;;;;5125281;28;20020;-73
2021/11/30 03:43:40;;;;;;;5.18;2.40;;;3.70;99.90;;;;;;5106628;28;20039;-76
2021/11/30 03:46:06;;;;;;;12.68;2.92;;;3.70;99.90;;;;;;5125176;28;20106;-70
2021/11/30 03:48:32;;;;;;;6.32;3.13;;;3.80;99.90;;;;;;5124859;28;20030;-73
2021/11/30 03:50:58;;;;;;;5.32;3.08;;;3.70;99.90;;;;;;5125308;28;20058;-71
2021/11/30 03:53:24;;;;;;;7.15;3.67;;;3.80;99.90;;;;;;5125090;28;20460;-73
2021/11/30 03:55:51;;;;;;;6.68;3.35;;;3.80;99.90;;;;;;5125409;28;20027;-72
2021/11/30 03:58:17;;;;;;;9.25;2.88;;;3.80;99.90;;;;;;5124709;28;20108;-71
2021/11/30 04:00:42;;;;;;;7.97;2.70;;;3.80;99.90;;;;;;5125365;28;20024;-75
2021/11/30 04:03:09;;;;;;;5.93;3.15;;;3.80;99.90;;;;;;5124771;28;20028;-72
2021/11/30 04:05:35;;;;;;;6.47;3.20;;;3.90;99.90;;;;;;5129411;28;20020;-75
2021/11/30 04:08:00;;;;;;;6.72;3.17;;;3.90;99.90;;;;;;5129343;28;20057;-74
2021/11/30 04:10:32;;;;;;;7.75;3.55;;;3.90;99.90;;;;;;5128871;28;20094;-78
2021/11/30 04:12:58;;;;;;;5.22;2.80;;;3.90;99.90;;;;;;5129199;28;20031;-74
2021/11/30 04:15:23;;;;;;;6.55;3.45;;;3.90;99.90;;;;;;5110358;28;20024;-75
2021/11/30 04:17:49;;;;;;;7.40;3.50;;;3.90;99.90;;;;;;5110936;28;20436;-75
2021/11/30 04:20:15;;;;;;;8.75;3.20;;;4.00;99.90;;;;;;5110604;28;20020;-70
2021/11/30 04:22:42;;;;;;;8.10;3.78;;;4.00;99.90;;;;;;5128584;28;20135;-73
2021/11/30 04:25:09;;;;;;;7.43;3.42;;;4.00;99.90;;;;;;5128675;28;20034;-73
2021/11/30 04:27:35;;;;;;;8.48;3.75;;;4.00;99.90;;;;;;5110583;28;20027;-72
2021/11/30 04:30:02;;;;;;;7.72;3.80;;;4.00;99.90;;;;;;5128392;28;20073;-72
2021/11/30 04:32:38;;;;;;;9.25;3.88;;;4.00;99.90;;;;;;5128472;28;20056;-74
2021/11/30 04:35:04;;;;;;;7.57;3.88;;;4.00;99.90;;;;;;5128826;28;20027;-73
2021/11/30 04:37:30;;;;;;;5.97;2.75;;;4.00;99.90;;;;;;5110513;28;20373;-73
2021/11/30 04:39:59;;;;;;;7.28;3.13;;;4.00;99.90;;;;;;5128705;28;20054;-78
2021/11/30 04:42:27;;;;;;;6.97;2.88;;;4.10;99.90;;;;;;5128626;28;20073;-75
2021/11/30 04:45:04;;;;;;;5.22;2.72;;;4.10;99.90;;;;;;5128693;28;20066;-75
2021/11/30 04:47:33;;;;;;;6.55;3.47;;;4.10;99.90;;;;;;5128650;28;20107;-71
2021/11/30 04:50:02;;;;;;;8.13;3.05;;;4.10;99.90;;;;;;5110111;28;20430;-75
2021/11/30 04:52:30;;;;;;;9.75;3.67;;;4.10;99.90;;;;;;5128240;28;20039;-75
2021/11/30 04:54:56;;;;;;;6.15;2.92;;;4.10;99.90;;;;;;5128153;28;20024;-73
2021/11/30 04:57:23;;;;;;;10.10;3.58;;;4.20;99.90;;;;;;5128492;28;20040;-74
2021/11/30 05:00:01;;;;;;;7.97;3.38;;;4.20;99.90;;;;;;5128237;28;20031;-73
2021/11/30 05:02:26;;;;;;;8.90;4.13;;;4.20;99.90;;;;;;5109891;28;20073;-75
2021/11/30 05:04:53;;;;;;;8.52;3.65;;;4.30;99.90;;;;;;5109776;28;20035;-75
2021/11/30 05:07:18;;;;;;;6.55;2.92;;;4.20;99.90;;;;;;5128313;28;20027;-71
2021/11/30 05:09:48;;;;;;;7.50;3.70;;;4.20;99.90;;;;;;5127765;28;20022;-71
2021/11/30 05:12:13;;;;;;;9.60;3.95;;;4.30;99.90;;;;;;5127718;28;20059;-74
2021/11/30 05:14:40;;;;;;;8.13;3.30;;;4.20;99.90;;;;;;5127611;28;20031;-74
2021/11/30 05:17:06;;;;;;;8.23;4.20;;;4.30;99.90;;;;;;5126767;28;20036;-72
2021/11/30 05:19:32;;;;;;;10.65;3.90;;;4.30;99.90;;;;;;5109278;28;20035;-72
2021/11/30 05:21:58;;;;;;;10.43;3.88;;;4.30;99.90;;;;;;5127571;28;20032;-73
2021/11/30 05:24:25;;;;;;;7.18;3.78;;;4.30;99.90;;;;;;5109299;28;20049;-74
2021/11/30 05:26:54;;;;;;;9.27;3.60;;;4.30;99.90;;;;;;5127549;28;20020;-73
2021/11/30 05:29:21;;;;;;;10.25;3.95;;;4.30;99.90;;;;;;5109578;28;20051;-72
2021/11/30 05:31:46;;;;;;;5.22;3.15;;;4.40;99.90;;;;;;5127134;28;20051;-72
2021/11/30 05:34:13;;;;;;;10.32;4.03;;;4.40;99.90;;;;;;5108849;28;20063;-70
2021/11/30 05:36:39;;;;;;;8.05;3.50;;;4.40;99.90;;;;;;5126803;28;20027;-69
2021/11/30 05:39:23;;;;;;;9.40;3.75;;;4.40;99.90;;;;;;5126804;28;20020;-72
2021/11/30 05:41:49;;;;;;;;;;;4.50;99.90;;;;;;5109650;28;20024;-72
2021/11/30 05:44:14;;;;;;;7.47;3.10;;;4.50;99.90;;;;;;5108389;28;19949;-74
2021/11/30 05:46:41;;;;;;;9.63;3.78;;;4.50;99.90;;;;;;5109334;28;20028;-72
2021/11/30 05:49:07;;;;;;;8.25;3.53;;;4.50;99.90;;;;;;5108939;28;20034;-72
2021/11/30 05:51:34;;;;;;;13.70;4.15;;;4.60;99.90;;;;;;5127152;28;20086;-73
2021/11/30 05:54:01;;;;;;;10.38;4.35;;;4.60;99.90;;;;;;5113713;28;20074;-72
2021/11/30 05:56:27;;;;;;;10.80;4.47;;;4.60;99.90;;;;;;5105567;28;20035;-72
2021/11/30 05:58:53;;;;;;;11.23;4.00;;;4.70;99.90;;;;;;5106646;28;20024;-73
2021/11/30 06:06:16;;;;;;;9.90;3.78;;;4.90;99.90;;;;;;5106143;28;20027;-73
2021/11/30 06:08:42;;;;;;;7.82;3.33;;;4.80;99.90;;;;;;5103540;28;20039;-72
2021/11/30 06:11:14;;;;;;;9.55;4.20;;;4.80;99.90;;;;;;5108259;28;20032;-72
2021/11/30 06:13:39;;;;;;;10.02;4.32;;;4.90;99.90;;;;;;5107326;28;20031;-74
2021/11/30 06:16:05;;;;;;;8.00;3.28;;;4.90;99.90;;;;;;5126268;28;20081;-73
2021/11/30 06:18:31;;;;;;;9.93;4.65;;;4.90;99.90;;;;;;5126742;28;20027;-70
2021/11/30 06:20:59;;;;;;;8.32;3.83;;;5.00;99.90;;;;;;5126166;28;20039;-74
2021/11/30 06:23:26;;;;;;;6.80;3.35;;;5.00;99.90;;;;;;5108139;28;20027;-70
2021/11/30 06:25:52;;;;;;;9.45;4.20;;;5.00;99.90;;;;;;5108319;28;20028;-75
2021/11/30 06:28:18;;;;;;;10.48;4.53;;;5.10;99.90;;;;;;5107870;28;20429;-75
2021/11/30 06:30:44;;;;;;;11.23;3.97;;;5.20;99.90;;;;;;5125944;28;20069;-76
2021/11/30 06:33:10;;;;;;;9.30;3.72;;;5.20;99.90;;;;;;5125794;28;20061;-75
2021/11/30 06:35:37;;;;;;;9.05;4.10;;;5.20;99.90;;;;;;5107623;28;20095;-75
2021/11/30 06:38:03;;;;;;;8.63;3.30;;;5.20;99.90;;;;;;5126416;28;20069;-74
2021/11/30 06:40:29;;;;;;;7.75;3.42;;;5.40;99.90;;;;;;5107936;28;20031;-73
2021/11/30 06:42:55;;;;;;;13.10;4.75;;;5.40;99.90;;;;;;5125949;28;20020;-74
2021/11/30 06:45:23;;;;;;;7.50;3.42;;;5.40;99.90;;;;;;5126134;28;20028;-73
2021/11/30 06:47:49;;;;;;;5.95;3.40;;;5.40;99.90;;;;;;5117413;28;20024;-78
2021/11/30 06:50:17;;;;;;;10.30;3.72;;;5.40;99.90;;;;;;5105588;28;20024;-80
2021/11/30 06:52:43;;;;;;;9.00;3.67;;;5.40;99.90;;;;;;5086841;28;20051;-77
2021/11/30 06:55:10;;;;;;;7.28;3.42;;;5.50;99.90;;;;;;5087252;28;20085;-76
2021/11/30 06:57:36;;;;;;;7.63;3.58;;;5.50;99.90;;;;;;5114547;28;20053;-77
2021/11/30 07:00:07;;;;;;;7.38;3.63;;;5.60;99.90;;;;;;5105213;28;20028;-78
2021/11/30 07:02:53;;;;;;;9.98;4.72;;;5.60;99.90;;;;;;5096466;28;20106;-79
2021/11/30 07:05:30;;;;;;;8.65;3.38;;;5.60;99.90;;;;;;5105534;28;20032;-77
2021/11/30 07:11:04;;;;;;;10.15;4.55;;;5.70;99.90;;;;;;5074215;28;20040;-79
2021/11/30 07:13:32;;;;;;;8.02;2.95;;;5.70;99.90;;;;;;5103397;28;20472;-76
2021/11/30 07:16:01;;;;;;;9.18;2.80;;;5.80;99.90;;;;;;5125696;28;20049;-75
2021/11/30 07:18:29;;;;;;;6.30;2.22;;;5.80;99.90;;;;;;5113662;28;20016;-77
2021/11/30 07:20:56;;;;;;;5.43;2.47;;;5.90;99.90;;;;;;5108034;28;20028;-76
2021/11/30 07:23:26;;;;;;;8.27;3.33;;;5.90;99.90;;;;;;5116281;28;20032;-78
2021/11/30 07:25:56;;;;;;;11.45;2.63;;;6.00;99.90;;;;;;5086821;28;20024;-79
2021/11/30 07:28:29;;;;;;;6.88;2.65;;;6.00;99.90;;;;;;5086802;28;20447;-78
2021/11/30 07:31:03;;;;;;;12.35;2.95;;;6.00;99.90;;;;;;5085946;28;20135;-77
2021/11/30 07:33:31;;;;;;;7.28;2.47;;;6.00;99.90;;;;;;5105020;28;20036;-77
2021/11/30 07:36:09;;;;;;;4.60;2.58;;;6.00;99.90;;;;;;5102754;28;20093;-76
2021/11/30 07:38:43;;;;;;;8.50;3.67;;;6.10;99.90;;;;;;5109798;28;20419;-76
2021/11/30 07:41:10;;;;;;;;;;;6.20;99.90;;;;;;5091988;28;20118;-75
2021/11/30 07:43:35;;;;;;;6.68;2.95;;;6.10;99.90;;;;;;5087749;28;19908;-78
2021/11/30 07:46:01;;;;;;;9.07;2.83;;;6.10;99.90;;;;;;5098381;28;20057;-78
2021/11/30 07:48:29;;;;;;;12.85;3.17;;;6.20;99.90;;;;;;5105607;28;20058;-80
2021/11/30 07:51:00;;;;;;;12.85;2.17;;;6.20;99.90;;;;;;5088937;28;20040;-78
2021/11/30 07:53:26;;;;;;;7.07;2.75;;;6.20;99.90;;;;;;5112135;28;20055;-77
2021/11/30 07:55:54;;;;;;;5.68;2.42;;;6.20;99.90;;;;;;5107231;28;20028;-80
2021/11/30 07:58:20;;;;;;;20.63;3.35;;;6.20;99.90;;;;;;5107316;28;20028;-79
2021/11/30 08:00:50;;;;;;;21.80;1.98;;;6.20;99.90;;;;;;5093053;28;20391;-82
2021/11/30 08:03:20;;;;;;;3.85;1.85;;;6.30;99.90;;;;;;5101919;28;20020;-81
2021/11/30 08:05:46;;;;;;;7.85;1.98;;;6.30;99.90;;;;;;5101965;28;20059;-79
2021/11/30 08:08:12;;;;;;;8.07;3.00;;;6.30;99.90;;;;;;5126590;28;20601;-84
2021/11/30 08:10:38;;;;;;;9.38;2.20;;;6.30;99.90;;;;;;5101484;28;20024;-80
2021/11/30 08:13:13;;;;;;;12.60;1.58;;;6.30;99.90;;;;;;5088074;28;20040;-82
2021/11/30 08:15:40;;;;;;;11.32;1.80;;;6.30;99.90;;;;;;5087682;28;20020;-80
2021/11/30 08:18:06;;;;;;;6.22;1.13;;;6.40;99.90;;;;;;5086735;28;20024;-82
2021/11/30 08:20:33;;;;;;;13.23;1.80;;;6.40;99.90;;;;;;5097533;28;20476;-79
2021/11/30 08:22:59;;;;;;;6.97;1.73;;;6.50;99.90;;;;;;5094245;28;20361;-82
2021/11/30 08:25:27;;;;;;;11.73;1.88;;;6.40;99.90;;;;;;5109279;28;20034;-81
2021/11/30 08:27:56;;;;;;;7.95;1.60;;;6.40;99.90;;;;;;5124816;28;20058;-81
2021/11/30 08:30:22;;;;;;;9.95;1.65;;;6.40;99.90;;;;;;5103598;28;20091;-80
2021/11/30 08:32:48;;;;;;;9.05;2.03;;;6.50;99.90;;;;;;5123415;28;20050;-75
2021/11/30 08:35:14;;;;;;;12.90;1.45;;;6.50;99.90;;;;;;5123214;28;20031;-77
2021/11/30 08:37:39;;;;;;;15.95;2.55;;;6.40;99.90;;;;;;5086587;28;20024;-76
2021/11/30 08:40:08;;;;;;;16.85;1.15;;;6.50;99.90;;;;;;5087056;28;20028;-79
2021/11/30 08:42:34;;;;;;;8.15;1.00;;;6.50;99.90;;;;;;5105022;28;20074;-76
2021/11/30 08:45:06;;;;;;;8.85;1.55;;;6.50;99.90;;;;;;5104786;28;20055;-78
2021/11/30 08:47:32;;;;;;;8.65;1.73;;;6.50;99.90;;;;;;5086636;28;20036;-78
2021/11/30 08:49:59;;;;;;;9.55;1.35;;;6.60;99.90;;;;;;5104240;28;20709;-81
2021/11/30 08:52:53;;;;;;;2.22;1.02;;;6.60;99.90;;;;;;5114881;28;20040;-81
2021/11/30 08:55:19;;;;;;;8.00;1.85;;;6.60;99.90;;;;;;5106817;28;20047;-78
2021/11/30 08:57:44;;;;;;;5.78;1.25;;;6.60;99.90;;;;;;5089986;28;20056;-77
2021/11/30 09:00:14;;;;;;;20.52;1.83;;;6.60;99.90;;;;;;5109735;28;20046;-78
2021/11/30 09:02:40;;;;;;;13.23;1.45;;;6.60;99.90;;;;;;5110289;28;20020;-77
2021/11/30 09:05:07;;;;;;;12.80;1.63;;;6.70;99.90;;;;;;5093491;28;20216;-76
2021/11/30 09:07:33;;;;;;;20.58;3.42;;;6.60;99.90;;;;;;5091995;27;20032;-75
2021/11/30 09:10:11;;;;;;;11.07;1.33;;;6.70;99.90;;;;;;5116492;27;20042;-80
2021/11/30 09:12:38;;;;;;;3.42;0.80;;;6.70;99.90;;;;;;5101407;28;20062;-75
2021/11/30 09:15:09;;;;;;;22.50;2.20;;;6.70;99.90;;;;;;5119028;28;20115;-77
2021/11/30 09:17:45;;;;;;;1.75;1.00;;;6.80;99.90;;;;;;5108356;27;20028;-77
2021/11/30 09:20:17;;;;;;;6.43;1.60;;;6.80;99.90;;;;;;5107462;28;20052;-78
2021/11/30 09:22:44;;;;;;;25.40;2.38;;;6.80;99.90;;;;;;5111533;28;20036;-74
2021/11/30 09:25:10;;;;;;;3.72;1.55;;;6.90;99.90;;;;;;5096056;28;20016;-76
2021/11/30 09:27:36;;;;;;;13.23;2.45;;;6.90;99.90;;;;;;5114476;28;20411;-75
2021/11/30 09:30:06;;;;;;;6.20;1.85;;;7.00;99.90;;;;;;5113674;28;20079;-74
2021/11/30 09:32:33;;;;;;;17.05;2.88;;;7.00;99.90;;;;;;5105780;28;20069;-76
2021/11/30 09:35:00;;;;;;;15.05;1.55;;;7.10;99.90;;;;;;5094510;28;20099;-76
2021/11/30 09:37:26;;;;;;;14.55;2.25;;;7.20;99.90;;;;;;5097209;28;20031;-78
2021/11/30 09:39:58;;;;;;;4.13;1.70;;;7.30;99.90;;;;;;5127746;28;20024;-78
2021/11/30 09:42:24;;;;;;;6.13;2.25;;;7.40;99.90;;;;;;5104131;28;20073;-76
2021/11/30 09:44:50;;;;;;;19.55;2.83;;;7.50;99.90;;;;;;5106427;28;20064;-76
2021/11/30 09:47:20;;;;;;;6.30;2.20;;;7.40;99.90;;;;;;5126119;28;20091;-77
2021/11/30 09:49:46;;;;;;;5.65;1.10;;;7.30;99.90;;;;;;5116954;28;20047;-76
2021/11/30 09:52:11;;;;;;;9.57;2.35;;;7.20;99.90;;;;;;5088165;28;20042;-75
2021/11/30 09:54:37;;;;;;;14.32;1.83;;;7.10;99.90;;;;;;5106639;28;20016;-77
2021/11/30 09:57:04;;;;;;;3.00;0.68;;;7.00;99.90;;;;;;5106496;28;20032;-78
2021/11/30 09:59:31;;;;;;;17.08;1.33;;;7.00;99.90;;;;;;5100737;28;20057;-77
2021/11/30 10:02:00;;;;;;;20.30;3.33;;;6.90;99.90;;;;;;5125338;28;20023;-75
2021/11/30 10:04:27;;;;;;;11.98;2.13;;;6.90;99.90;;;;;;5099538;28;20057;-76
2021/11/30 10:06:56;;;;;;;0.85;0.45;;;6.90;99.90;;;;;;5106346;28;20027;-78
2021/11/30 10:09:26;;;;;;;18.23;2.83;;;6.90;99.90;;;;;;5107343;28;20288;-77
2021/11/30 10:12:08;;;;;;;6.85;1.30;;;6.90;99.90;;;;;;5127000;28;20123;-78
2021/11/30 10:14:37;;;;;;;5.60;2.33;;;6.90;99.90;;;;;;5114543;28;20092;-76
2021/11/30 10:17:16;;;;;;;4.47;1.27;;;6.80;99.90;;;;;;5115883;28;20047;-76
2021/11/30 10:19:43;;;;;;;10.77;1.38;;;6.80;99.90;;;;;;5118518;28;20028;-76
2021/11/30 10:22:09;;;;;;;7.13;1.40;;;6.80;99.90;;;;;;5106462;28;20080;-76
2021/11/30 10:24:35;;;;;;;9.80;1.80;;;6.80;99.90;;;;;;5115753;28;20020;-74
2021/11/30 10:27:01;;;;;;;16.02;1.02;;;6.80;99.90;;;;;;5102702;28;20042;-75
2021/11/30 10:29:29;;;;;;;4.88;0.77;;;6.80;99.90;;;;;;5096173;28;20047;-78
2021/11/30 10:32:02;;;;;;;14.90;1.58;;;6.80;99.90;;;;;;5098633;28;20063;-75
2021/11/30 10:34:35;;;;;;;7.97;1.60;;;6.90;99.90;;;;;;5094468;28;20031;-76
2021/11/30 10:37:13;;;;;;;0.98;0.57;;;6.90;99.90;;;;;;5106540;28;20085;-75
2021/11/30 10:39:41;;;;;;;5.18;1.23;;;7.00;99.90;;;;;;5105648;28;20114;-74
2021/11/30 10:42:12;;;;;;;4.30;1.33;;;7.00;99.90;;;;;;5105144;28;20095;-76
2021/11/30 10:44:39;;;;;;;6.70;1.73;;;7.00;99.90;;;;;;5107202;28;20084;-77
2021/11/30 10:47:16;;;;;;;9.32;1.08;;;7.10;99.90;;;;;;5119562;28;20031;-76
2021/11/30 10:49:46;;;;;;;3.97;1.05;;;7.20;99.90;;;;;;5090583;28;20095;-77
2021/11/30 10:52:17;;;;;;;9.50;1.45;;;7.50;99.90;;;;;;5107575;28;20038;-78
2021/11/30 10:55:16;;;;;;;3.78;0.98;;;7.90;99.90;;;;;;5130072;27;20034;-75
2021/11/30 10:58:10;;;;;;;4.80;0.98;;;8.20;99.90;;;;;;5119784;27;20506;-76
2021/11/30 11:00:36;;;;;;;8.55;1.63;;;8.40;99.90;;;;;;5095027;28;20035;-79
2021/11/30 11:03:11;;;;;;;12.45;0.95;;;8.80;99.90;;;;;;5086454;28;20032;-76
2021/11/30 11:05:47;;;;;;;3.88;1.25;;;9.10;99.90;;;;;;5093283;28;20028;-79
2021/11/30 11:08:19;;;;;;;11.15;1.85;;;9.30;99.90;;;;;;5120653;28;20092;-75
2021/11/30 11:11:01;;;;;;;0.55;0.52;;;9.40;99.90;;;;;;5106949;28;20431;-79
2021/11/30 11:13:38;;;;;;;14.23;1.15;;;9.30;99.90;;;;;;5086382;28;20028;-77
2021/11/30 11:16:07;;;;;;;9.23;1.15;;;9.60;99.90;;;;;;5086387;28;20028;-76
2021/11/30 11:18:41;;;;;;;7.47;0.75;;;9.60;99.90;;;;;;5086188;28;20043;-76
2021/11/30 11:21:21;;;;;;;2.28;0.88;;;9.50;99.90;;;;;;5104195;28;20029;-80
2021/11/30 11:24:29;;;;;;;10.70;1.92;;;9.50;99.90;;;;;;5088101;28;20043;-77
2021/11/30 11:27:05;;;;;;;6.13;0.68;;;9.60;99.90;;;;;;5093510;28;20423;-76
2021/11/30 11:29:31;;;;;;;;;;;9.50;99.90;;;;;;5111806;28;20095;-77
2021/11/30 11:32:01;;;;;;;6.95;1.63;;;9.20;99.90;;;;;;5083303;28;19923;-79
2021/11/30 11:34:37;;;;;;;5.05;1.95;;;9.00;99.90;;;;;;5072291;28;20052;-76
2021/11/30 11:37:14;;;;;;;7.15;1.35;;;9.10;99.90;;;;;;5062008;28;20045;-80
2021/11/30 11:39:40;;;;;;;2.95;1.08;;;9.40;99.90;;;;;;5074773;28;20041;-73
2021/11/30 11:42:09;;;;;;;13.77;1.95;;;9.70;99.90;;;;;;5063648;28;20043;-75
2021/11/30 11:44:35;;;;;;;4.80;1.05;;;9.90;99.90;;;;;;5062323;28;20028;-78
2021/11/30 11:47:06;;;;;;;3.83;1.95;;;10.20;99.90;;;;;;5063066;28;20316;-76
2021/11/30 11:49:46;;;;;;;13.73;1.48;;;10.30;99.90;;;;;;5062002;28;20033;-78
2021/11/30 11:52:27;;;;;;;1.10;0.63;;;;;;;;;;5063170;28;20139;-74
2021/11/30 11:55:06;;;;;;;5.78;1.45;;;10.40;99.90;;;;;;5062294;28;20029;-77
2021/11/30 11:57:34;;;;;;;3.72;1.27;;;11.00;99.90;;;;;;5063768;28;20028;-80
2021/11/30 12:00:30;;;;;;;10.10;1.35;;;10.90;99.90;;;;;;5077820;28;20037;-75
2021/11/30 12:03:03;;;;;;;5.47;1.05;;;10.60;99.90;;;;;;5081554;28;20070;-82
2021/11/30 12:05:50;;;;;;;8.93;1.38;;;10.50;99.90;;;;;;5071340;28;20064;-79
2021/11/30 12:08:35;;;;;;;1.83;0.90;;;10.30;99.90;;;;;;5063536;28;20131;-77
2021/11/30 12:11:03;;;;;;;5.20;1.20;;;10.00;99.90;;;;;;5063416;28;20060;-77
2021/11/30 12:13:30;;;;;;;1.92;0.73;;;9.80;99.90;;;;;;5063571;28;20030;-78
2021/11/30 12:16:09;;;;;;;2.88;1.33;;;9.60;99.90;;;;;;5064016;28;20044;-74
2021/11/30 12:18:43;;;;;;;4.28;0.90;;;9.50;99.90;;;;;;5062029;28;20032;-77
2021/11/30 12:21:22;;;;;;;;;;;9.50;99.90;;;;;;5062335;28;20033;-75
2021/11/30 12:23:55;;;;;;;6.18;0.90;;;9.40;99.90;;;;;;5061643;28;19980;-76
2021/11/30 12:26:38;;;;;;;0.88;0.70;;;9.30;99.90;;;;;;5064563;28;20079;-75
2021/11/30 12:29:19;;;;;;;4.57;0.50;;;9.00;99.90;;;;;;5065138;28;20045;-75
2021/11/30 12:31:46;;;;;;;10.98;1.10;;;8.90;99.90;;;;;;5093230;28;20190;-76
2021/11/30 12:34:33;;;;;;;7.68;1.02;;;8.80;99.90;;;;;;5104774;28;20091;-76
2021/11/30 12:37:11;;;;;;;8.23;1.35;;;8.60;99.90;;;;;;5106796;28;20484;-73
2021/11/30 12:40:05;;;;;;;7.82;1.25;;;8.40;99.90;;;;;;5118418;28;20023;-74
2021/11/30 12:42:40;;;;;;;1.85;0.32;;;8.20;99.90;;;;;;5115328;28;20020;-76
2021/11/30 12:45:22;;;;;;;3.53;1.05;;;8.10;99.90;;;;;;5106846;28;20031;-77
2021/11/30 12:47:48;;;;;;;9.07;1.42;;;8.10;99.90;;;;;;5088851;28;20039;-75
2021/11/30 12:50:32;;;;;;;2.75;1.02;;;8.00;99.90;;;;;;5107225;27;20020;-76
2021/11/30 12:53:08;;;;;;;7.60;1.70;;;8.00;99.90;;;;;;5108818;28;20039;-78
2021/11/30 12:55:52;;;;;;;7.78;1.30;;;8.00;99.90;;;;;;5089386;28;20470;-78
2021/11/30 12:58:46;;;;;;;4.43;1.38;;;8.00;99.90;;;;;;5126336;28;20714;-77
2021/11/30 13:01:25;;;;;;;3.42;1.15;;;7.90;99.90;;;;;;5125493;28;20154;-76
2021/11/30 13:04:30;;;;;;;9.10;0.77;;;7.90;99.90;;;;;;5087304;28;20028;-75
2021/11/30 13:07:12;;;;;;;3.75;1.58;;;7.70;99.90;;;;;;5109844;27;20032;-78
2021/11/30 13:09:41;;;;;;;2.70;1.13;;;7.70;99.90;;;;;;5098565;28;20095;-75
2021/11/30 13:12:11;;;;;;;9.23;1.73;;;7.50;99.90;;;;;;5104338;28;20040;-80
2021/11/30 13:14:38;;;;;;;5.32;1.50;;;7.50;99.90;;;;;;5107180;28;20031;-74
2021/11/30 13:17:04;;;;;;;11.98;1.55;;;7.50;99.90;;;;;;5113247;28;20043;-77
2021/11/30 13:19:33;;;;;;;8.07;1.13;;;7.50;99.90;;;;;;5086832;28;20024;-73